createdAt,value
2018-12-02T00:01:53.243Z,2.47
2018-12-02T00:04:21.569Z,2.49
2018-12-02T00:06:49.917Z,2.49
2018-12-02T00:09:18.262Z,2.49
2018-12-02T00:11:46.637Z,2.49
2018-12-02T00:14:15.196Z,2.51
2018-12-02T00:16:43.898Z,2.51
2018-12-02T00:19:12.244Z,2.52
2018-12-02T00:21:40.595Z,2.53
2018-12-02T00:24:08.957Z,2.52
2018-12-02T00:26:37.327Z,2.50
2018-12-02T00:29:05.679Z,2.46
2018-12-02T00:31:34.015Z,2.43
2018-12-02T00:34:02.354Z,2.39
2018-12-02T00:36:30.691Z,2.37
2018-12-02T00:38:59.054Z,2.34
2018-12-02T00:41:27.382Z,2.31
2018-12-02T00:43:55.703Z,2.29
2018-12-02T00:46:24.442Z,2.27
2018-12-02T00:48:53.377Z,2.24
2018-12-02T00:51:21.751Z,2.21
2018-12-02T00:53:50.079Z,2.20
2018-12-02T00:56:17.902Z,2.17
2018-12-02T00:58:46.234Z,2.17
2018-12-02T01:01:14.667Z,2.15
2018-12-02T01:03:43.008Z,2.12
2018-12-02T01:06:11.326Z,2.10
2018-12-02T01:08:39.667Z,2.05
2018-12-02T01:11:08.030Z,2.01
2018-12-02T01:13:36.367Z,2.01
2018-12-02T01:16:04.696Z,2.01
2018-12-02T01:18:33.272Z,2.02
2018-12-02T01:21:01.389Z,2.02
2018-12-02T01:23:29.729Z,2.02
2018-12-02T01:25:58.420Z,2.03
2018-12-02T01:28:26.761Z,2.03
2018-12-02T01:30:55.169Z,2.02
2018-12-02T01:33:23.542Z,2.00
2018-12-02T01:35:51.895Z,1.99
2018-12-02T01:38:20.234Z,1.97
2018-12-02T01:40:48.614Z,1.96
2018-12-02T01:43:16.901Z,1.95
2018-12-02T01:45:45.242Z,1.93
2018-12-02T01:48:13.576Z,1.91
2018-12-02T01:50:41.921Z,1.92
2018-12-02T01:53:10.245Z,1.91
2018-12-02T01:55:38.614Z,1.92
2018-12-02T01:58:06.966Z,1.92
2018-12-02T02:00:35.317Z,1.94
2018-12-02T02:03:03.709Z,1.90
2018-12-02T02:05:32.043Z,1.88
2018-12-02T02:08:00.372Z,1.88
2018-12-02T02:10:28.704Z,1.87
2018-12-02T02:12:57.046Z,1.87
2018-12-02T02:15:25.381Z,1.87
2018-12-02T02:17:53.718Z,1.87
2018-12-02T02:20:22.055Z,1.87
2018-12-02T02:22:50.394Z,1.87
2018-12-02T02:25:18.741Z,1.88
2018-12-02T02:27:47.094Z,1.89
2018-12-02T02:30:15.426Z,1.90
2018-12-02T02:32:43.772Z,1.91
2018-12-02T02:35:12.135Z,1.91
2018-12-02T02:37:40.520Z,1.91
2018-12-02T02:40:08.885Z,1.93
2018-12-02T02:42:37.737Z,1.95
2018-12-02T02:45:05.852Z,1.98
2018-12-02T02:47:34.189Z,2.00
2018-12-02T02:50:02.524Z,2.01
2018-12-02T02:52:30.929Z,1.99
2018-12-02T02:54:59.277Z,1.98
2018-12-02T02:57:27.615Z,1.97
2018-12-02T02:59:55.956Z,1.99
2018-12-02T03:02:24.294Z,1.99
2018-12-02T03:04:52.660Z,1.97
2018-12-02T03:07:21.008Z,1.98
2018-12-02T03:09:49.348Z,1.99
2018-12-02T03:12:17.679Z,2.01
2018-12-02T03:14:46.016Z,2.03
2018-12-02T03:17:14.360Z,2.05
2018-12-02T03:19:42.697Z,2.06
2018-12-02T03:22:11.037Z,2.06
2018-12-02T03:24:39.367Z,2.04
2018-12-02T03:27:07.728Z,2.04
2018-12-02T03:29:36.068Z,2.03
2018-12-02T03:32:04.435Z,1.98
2018-12-02T03:34:32.760Z,1.96
2018-12-02T03:37:01.114Z,1.91
2018-12-02T03:39:29.470Z,1.87
2018-12-02T03:41:57.797Z,1.90
2018-12-02T03:44:26.151Z,1.95
2018-12-02T03:46:54.495Z,1.99
2018-12-02T03:49:22.848Z,2.02
2018-12-02T03:51:51.226Z,2.05
2018-12-02T03:54:19.571Z,2.08
2018-12-02T03:56:47.918Z,2.11
2018-12-02T03:59:16.566Z,2.11
2018-12-02T04:01:45.131Z,2.10
2018-12-02T04:04:13.246Z,2.10
2018-12-02T04:06:41.643Z,2.09
2018-12-02T04:09:10.014Z,2.06
2018-12-02T04:11:38.356Z,2.07
2018-12-02T04:14:06.693Z,2.08
2018-12-02T04:16:35.021Z,2.08
2018-12-02T04:19:03.368Z,2.10
2018-12-02T04:21:31.704Z,2.12
2018-12-02T04:24:00.031Z,2.14
2018-12-02T04:26:28.375Z,2.16
2018-12-02T04:28:56.705Z,2.17
2018-12-02T04:31:25.043Z,2.18
2018-12-02T04:33:53.380Z,2.18
2018-12-02T04:36:21.726Z,2.20
2018-12-02T04:38:50.063Z,2.20
2018-12-02T04:41:18.398Z,2.19
2018-12-02T04:43:46.742Z,2.17
2018-12-02T04:46:15.072Z,2.18
2018-12-02T04:48:43.425Z,2.16
2018-12-02T04:51:11.764Z,2.16
2018-12-02T04:53:40.105Z,2.15
2018-12-02T04:56:08.459Z,2.15
2018-12-02T04:58:36.802Z,2.15
2018-12-02T05:01:05.146Z,2.17
2018-12-02T05:03:33.503Z,2.18
2018-12-02T05:06:01.867Z,2.19
2018-12-02T05:08:30.243Z,2.21
2018-12-02T05:10:58.589Z,2.21
2018-12-02T05:13:26.927Z,2.21
2018-12-02T05:15:55.278Z,2.20
2018-12-02T05:18:23.617Z,2.19
2018-12-02T05:20:51.972Z,2.19
2018-12-02T05:23:20.314Z,2.20
2018-12-02T05:25:48.695Z,2.22
2018-12-02T05:28:17.042Z,2.21
2018-12-02T05:30:45.387Z,2.21
2018-12-02T05:33:13.723Z,2.21
2018-12-02T05:35:42.291Z,2.19
2018-12-02T05:38:10.416Z,2.16
2018-12-02T05:40:38.772Z,2.15
2018-12-02T05:43:07.108Z,2.17
2018-12-02T05:45:35.455Z,2.16
2018-12-02T05:48:03.784Z,2.16
2018-12-02T05:50:32.124Z,2.17
2018-12-02T05:53:00.465Z,2.19
2018-12-02T05:55:28.816Z,2.21
2018-12-02T05:57:57.144Z,2.23
2018-12-02T06:00:25.512Z,2.23
2018-12-02T06:02:53.885Z,2.20
2018-12-02T06:05:22.236Z,2.18
2018-12-02T06:07:50.574Z,2.17
2018-12-02T06:10:19.100Z,2.17
2018-12-02T06:12:47.452Z,2.16
2018-12-02T06:15:15.792Z,2.15
2018-12-02T06:17:44.136Z,2.16
2018-12-02T06:20:12.470Z,2.16
2018-12-02T06:22:40.842Z,2.14
2018-12-02T06:25:09.215Z,2.11
2018-12-02T06:27:37.556Z,2.11
2018-12-02T06:30:05.902Z,2.14
2018-12-02T06:32:34.241Z,2.16
2018-12-02T06:35:02.579Z,2.18
2018-12-02T06:37:30.929Z,2.19
2018-12-02T06:39:59.279Z,2.20
2018-12-02T06:42:27.641Z,2.20
2018-12-02T06:44:55.984Z,2.21
2018-12-02T06:47:24.329Z,2.21
2018-12-02T06:49:52.677Z,2.21
2018-12-02T06:52:21.036Z,2.22
2018-12-02T06:54:49.403Z,2.20
2018-12-02T06:57:17.737Z,2.18
2018-12-02T06:59:46.104Z,2.19
2018-12-02T07:02:14.443Z,2.18
2018-12-02T07:04:42.786Z,2.18
2018-12-02T07:07:11.148Z,2.19
2018-12-02T07:09:39.503Z,2.22
2018-12-02T07:12:08.135Z,2.23
2018-12-02T07:14:36.465Z,2.27
2018-12-02T07:17:04.816Z,2.31
2018-12-02T07:19:33.166Z,2.35
2018-12-02T07:22:01.515Z,2.40
2018-12-02T07:24:29.858Z,2.45
2018-12-02T07:26:58.226Z,2.50
2018-12-02T07:29:26.570Z,2.54
2018-12-02T07:31:54.911Z,2.58
2018-12-02T07:34:23.272Z,2.64
2018-12-02T07:36:51.616Z,2.67
2018-12-02T07:39:20.162Z,2.71
2018-12-02T07:41:49.994Z,2.77
2018-12-02T07:44:18.293Z,2.84
2018-12-02T07:46:46.634Z,2.90
2018-12-02T07:49:15.000Z,2.94
2018-12-02T07:51:43.318Z,2.96
2018-12-02T07:54:11.657Z,2.99
2018-12-02T07:56:40.010Z,3.03
2018-12-02T07:59:08.395Z,3.09
2018-12-02T08:01:36.973Z,3.12
2018-12-02T08:04:05.315Z,3.17
2018-12-02T08:06:33.891Z,3.21
2018-12-02T08:09:02.009Z,3.26
2018-12-02T08:11:30.332Z,3.30
2018-12-02T08:13:58.705Z,3.33
2018-12-02T08:16:27.903Z,3.35
2018-12-02T08:18:56.235Z,3.37
2018-12-02T08:21:24.562Z,3.39
2018-12-02T08:23:52.906Z,3.42
2018-12-02T08:26:28.229Z,3.44
2018-12-02T08:28:58.647Z,3.45
2018-12-02T08:31:27.025Z,3.47
2018-12-02T08:33:55.371Z,3.50
2018-12-02T08:36:23.748Z,3.54
2018-12-02T08:38:52.102Z,3.64
2018-12-02T08:41:20.433Z,3.70
2018-12-02T08:43:48.774Z,3.76
2018-12-02T08:46:17.356Z,3.81
2018-12-02T08:48:45.464Z,3.92
2018-12-02T08:51:13.803Z,4.02
2018-12-02T08:53:42.389Z,4.14
2018-12-02T08:56:11.007Z,4.29
2018-12-02T08:58:39.352Z,4.43
2018-12-02T09:01:07.705Z,4.56
2018-12-02T09:03:36.428Z,4.75
2018-12-02T09:06:05.170Z,4.94
2018-12-02T09:08:35.039Z,5.08
2018-12-02T09:11:03.438Z,5.20
2018-12-02T09:13:31.840Z,5.27
2018-12-02T09:16:00.733Z,5.33
2018-12-02T09:18:29.082Z,5.37
2018-12-02T09:20:57.466Z,5.44
2018-12-02T09:23:25.790Z,5.47
2018-12-02T09:25:54.366Z,5.45
2018-12-02T09:28:22.488Z,5.42
2018-12-02T09:30:50.856Z,5.41
2018-12-02T09:33:19.498Z,5.42
2018-12-02T09:35:47.829Z,5.45
2018-12-02T09:38:16.159Z,5.46
2018-12-02T09:40:44.492Z,5.39
2018-12-02T09:43:12.834Z,5.29
2018-12-02T09:45:41.190Z,5.22
2018-12-02T09:48:09.536Z,5.14
2018-12-02T09:50:38.667Z,5.07
2018-12-02T09:53:07.318Z,4.94
2018-12-02T09:55:35.685Z,4.87
2018-12-02T09:58:04.038Z,4.78
2018-12-02T10:00:34.365Z,4.70
2018-12-02T10:03:00.703Z,4.63
2018-12-02T10:05:29.035Z,4.63
2018-12-02T10:07:57.378Z,4.62
2018-12-02T10:10:25.721Z,4.63
2018-12-02T10:12:54.067Z,4.60
2018-12-02T10:15:22.399Z,4.57
2018-12-02T10:17:50.870Z,4.58
2018-12-02T10:20:19.249Z,4.59
2018-12-02T10:22:47.873Z,4.63
2018-12-02T10:25:16.206Z,4.65
2018-12-02T10:27:44.542Z,4.64
2018-12-02T10:30:12.876Z,4.68
2018-12-02T10:32:41.218Z,4.70
2018-12-02T10:35:09.563Z,4.73
2018-12-02T10:37:37.948Z,4.78
2018-12-02T10:40:06.292Z,4.84
2018-12-02T10:42:34.647Z,4.90
2018-12-02T10:45:03.020Z,4.95
2018-12-02T10:47:31.366Z,4.98
2018-12-02T10:50:00.175Z,5.01
2018-12-02T10:52:28.511Z,5.03
2018-12-02T10:54:56.866Z,5.06
2018-12-02T10:57:25.204Z,5.08
2018-12-02T10:59:53.538Z,5.11
2018-12-02T11:02:21.874Z,5.14
2018-12-02T11:04:50.210Z,5.16
2018-12-02T11:07:18.560Z,5.20
2018-12-02T11:09:46.902Z,5.31
2018-12-02T11:12:15.238Z,5.46
2018-12-02T11:14:43.592Z,5.55
2018-12-02T11:17:11.935Z,5.61
2018-12-02T11:19:40.360Z,5.64
2018-12-02T11:22:08.722Z,5.66
2018-12-02T11:24:37.076Z,5.71
2018-12-02T11:27:05.422Z,5.73
2018-12-02T11:29:33.776Z,5.72
2018-12-02T11:32:02.175Z,5.73
2018-12-02T11:34:30.521Z,5.78
2018-12-02T11:36:58.924Z,5.85
2018-12-02T11:39:27.388Z,5.91
2018-12-02T11:41:55.764Z,5.99
2018-12-02T11:44:24.329Z,6.05
2018-12-02T11:46:52.712Z,6.17
2018-12-02T11:49:21.079Z,6.25
2018-12-02T11:51:49.429Z,6.32
2018-12-02T11:54:18.810Z,6.37
2018-12-02T11:56:47.268Z,6.54
2018-12-02T11:59:15.614Z,6.81
2018-12-02T12:01:44.095Z,7.04
2018-12-02T12:04:12.448Z,7.26
2018-12-02T12:06:40.979Z,7.44
2018-12-02T12:09:09.320Z,7.57
2018-12-02T12:11:37.695Z,7.55
2018-12-02T12:14:06.042Z,7.51
2018-12-02T12:16:34.435Z,7.50
2018-12-02T12:19:02.803Z,7.47
2018-12-02T12:21:31.203Z,7.45
2018-12-02T12:23:59.551Z,7.46
2018-12-02T12:26:28.017Z,7.44
2018-12-02T12:28:56.378Z,7.40
2018-12-02T12:31:24.739Z,7.36
2018-12-02T12:33:53.115Z,7.29
2018-12-02T12:36:21.480Z,7.21
2018-12-02T12:38:49.815Z,7.17
2018-12-02T12:41:18.157Z,7.17
2018-12-02T12:43:46.513Z,7.15
2018-12-02T12:46:14.842Z,7.07
2018-12-02T12:48:43.222Z,7.03
2018-12-02T12:51:11.550Z,6.97
2018-12-02T12:53:39.895Z,6.94
2018-12-02T12:56:08.243Z,6.90
2018-12-02T12:58:36.725Z,6.86
2018-12-02T13:01:05.061Z,6.86
2018-12-02T13:03:33.655Z,6.83
2018-12-02T13:06:02.004Z,6.81
2018-12-02T13:08:30.340Z,6.80
2018-12-02T13:10:58.721Z,6.83
2018-12-02T13:13:27.077Z,6.84
2018-12-02T13:15:55.446Z,6.85
2018-12-02T13:18:23.778Z,6.84
2018-12-02T13:20:52.138Z,6.81
2018-12-02T13:23:20.630Z,6.77
2018-12-02T13:25:48.993Z,6.75
2018-12-02T13:28:17.320Z,6.75
2018-12-02T13:30:46.472Z,6.73
2018-12-02T13:33:15.504Z,6.70
2018-12-02T13:35:44.075Z,6.66
2018-12-02T13:38:12.197Z,6.64
2018-12-02T13:40:40.523Z,6.60
2018-12-02T13:43:08.890Z,6.53
2018-12-02T13:45:37.271Z,6.50
2018-12-02T13:48:05.620Z,6.51
2018-12-02T13:50:34.065Z,6.49
2018-12-02T13:53:02.442Z,6.44
2018-12-02T13:55:31.010Z,6.40
2018-12-02T13:57:59.460Z,6.34
2018-12-02T14:00:27.791Z,6.29
2018-12-02T14:02:56.163Z,6.24
2018-12-02T14:05:24.584Z,6.20
2018-12-02T14:07:52.921Z,6.16
2018-12-02T14:10:21.856Z,6.12
2018-12-02T14:12:50.289Z,6.06
2018-12-02T14:15:18.678Z,6.03
2018-12-02T14:17:47.059Z,5.97
2018-12-02T14:20:20.635Z,5.91
2018-12-02T14:22:48.826Z,5.86
2018-12-02T14:25:17.234Z,5.79
2018-12-02T14:27:45.676Z,5.76
2018-12-02T14:30:14.047Z,5.73
2018-12-02T14:32:43.164Z,5.67
2018-12-02T14:35:11.496Z,5.61
2018-12-02T14:37:40.268Z,5.57
2018-12-02T14:40:08.602Z,5.55
2018-12-02T14:42:37.274Z,5.52
2018-12-02T14:45:05.731Z,5.50
2018-12-02T14:47:34.303Z,5.45
2018-12-02T14:50:03.546Z,5.43
2018-12-02T14:52:33.434Z,5.41
2018-12-02T14:55:02.168Z,5.38
2018-12-02T14:57:30.578Z,5.37
2018-12-02T14:59:59.057Z,5.36
2018-12-02T15:02:27.460Z,5.34
2018-12-02T15:04:56.618Z,5.29
2018-12-02T15:07:25.105Z,5.23
2018-12-02T15:09:53.567Z,5.18
2018-12-02T15:12:22.001Z,5.17
2018-12-02T15:14:52.241Z,5.14
2018-12-02T15:17:21.277Z,5.10
2018-12-02T15:19:50.767Z,5.11
2018-12-02T15:22:19.229Z,5.12
2018-12-02T15:24:47.580Z,5.12
2018-12-02T15:27:16.562Z,5.13
2018-12-02T15:29:44.914Z,5.14
2018-12-02T15:32:13.457Z,5.16
2018-12-02T15:34:41.847Z,5.15
2018-12-02T15:37:10.416Z,5.14
2018-12-02T15:39:38.633Z,5.11
2018-12-02T15:42:07.385Z,5.09
2018-12-02T15:44:37.110Z,5.09
2018-12-02T15:47:05.549Z,5.03
2018-12-02T15:49:34.093Z,4.99
2018-12-02T15:52:02.725Z,4.92
2018-12-02T15:54:31.060Z,4.88
2018-12-02T15:56:59.420Z,4.87
2018-12-02T15:59:30.570Z,4.89
2018-12-02T16:02:00.084Z,4.88
2018-12-02T16:04:36.858Z,4.85
2018-12-02T16:07:06.075Z,4.83
2018-12-02T16:09:35.543Z,4.85
2018-12-02T16:12:04.933Z,4.85
2018-12-02T16:14:33.446Z,4.86
2018-12-02T16:17:01.882Z,4.85
2018-12-02T16:19:30.456Z,4.82
2018-12-02T16:21:59.393Z,4.78
2018-12-02T16:24:28.234Z,4.75
2018-12-02T16:26:56.645Z,4.69
2018-12-02T16:29:24.867Z,4.69
2018-12-02T16:31:54.103Z,4.66
2018-12-02T16:34:22.804Z,4.55
2018-12-02T16:36:51.179Z,4.48
2018-12-02T16:39:19.738Z,4.46
2018-12-02T16:41:47.978Z,4.48
2018-12-02T16:44:16.308Z,4.48
2018-12-02T16:46:44.970Z,4.45
2018-12-02T16:49:13.884Z,4.42
2018-12-02T16:51:42.752Z,4.39
2018-12-02T16:54:11.164Z,4.39
2018-12-02T16:56:39.563Z,4.40
2018-12-02T16:59:07.960Z,4.40
2018-12-02T17:01:36.510Z,4.40
2018-12-02T17:04:04.983Z,4.41
2018-12-02T17:06:33.334Z,4.43
2018-12-02T17:09:01.892Z,4.45
2018-12-02T17:11:30.250Z,4.46
2018-12-02T17:13:58.665Z,4.49
2018-12-02T17:16:27.181Z,4.51
2018-12-02T17:18:55.519Z,4.52
2018-12-02T17:21:24.015Z,4.57
2018-12-02T17:23:52.475Z,4.58
2018-12-02T17:26:20.821Z,4.60
2018-12-02T17:28:49.235Z,4.59
2018-12-02T17:31:17.699Z,4.51
2018-12-02T17:33:46.039Z,4.49
2018-12-02T17:36:14.438Z,4.46
2018-12-02T17:38:42.949Z,4.45
2018-12-02T17:41:11.278Z,4.47
2018-12-02T17:43:43.828Z,4.46
2018-12-02T17:46:12.292Z,4.45
2018-12-02T17:48:40.854Z,4.44
2018-12-02T17:51:09.221Z,4.44
2018-12-02T17:53:37.642Z,4.42
2018-12-02T17:56:06.357Z,4.43
2018-12-02T17:58:34.735Z,4.40
2018-12-02T18:01:04.472Z,4.36
2018-12-02T18:03:32.712Z,4.32
2018-12-02T18:06:01.094Z,4.29
2018-12-02T18:08:29.719Z,4.28
2018-12-02T18:10:58.437Z,4.27
2018-12-02T18:13:29.097Z,4.30
2018-12-02T18:15:57.631Z,4.22
2018-12-02T18:18:26.135Z,4.20
2018-12-02T18:20:54.692Z,4.18
2018-12-02T18:23:23.334Z,4.16
2018-12-02T18:25:51.716Z,4.18
2018-12-02T18:28:20.743Z,4.17
2018-12-02T18:30:50.919Z,4.14
2018-12-02T18:33:19.888Z,4.13
2018-12-02T18:35:48.411Z,4.15
2018-12-02T18:38:17.800Z,4.13
2018-12-02T18:40:46.140Z,4.14
2018-12-02T18:43:14.558Z,4.12
2018-12-02T18:45:43.669Z,4.06
2018-12-02T18:48:12.237Z,4.03
2018-12-02T18:50:40.637Z,4.04
2018-12-02T18:53:08.972Z,4.05
2018-12-02T18:55:37.339Z,4.07
2018-12-02T18:58:05.668Z,4.06
2018-12-02T19:00:34.062Z,4.09
2018-12-02T19:03:02.466Z,4.13
2018-12-02T19:05:30.810Z,4.18
2018-12-02T19:07:59.256Z,4.23
2018-12-02T19:10:27.665Z,4.23
2018-12-02T19:12:56.339Z,4.19
2018-12-02T19:15:24.663Z,4.16
2018-12-02T19:17:52.994Z,4.16
2018-12-02T19:20:21.333Z,4.20
2018-12-02T19:22:49.714Z,4.22
2018-12-02T19:25:18.265Z,4.28
2018-12-02T19:27:46.900Z,4.34
2018-12-02T19:30:15.442Z,4.34
2018-12-02T19:32:43.092Z,4.32
2018-12-02T19:35:12.012Z,4.32
2018-12-02T19:37:41.082Z,4.32
2018-12-02T19:40:09.431Z,4.32
2018-12-02T19:42:37.857Z,4.33
2018-12-02T19:45:06.267Z,4.33
2018-12-02T19:47:34.599Z,4.35
2018-12-02T19:50:02.948Z,4.38
2018-12-02T19:52:31.278Z,4.39
2018-12-02T19:54:59.820Z,4.36
2018-12-02T19:57:28.309Z,4.34
2018-12-02T19:59:56.726Z,4.33
2018-12-02T20:02:25.304Z,4.33
2018-12-02T20:04:53.421Z,4.33
2018-12-02T20:07:21.761Z,4.34
2018-12-02T20:09:50.141Z,4.35
2018-12-02T20:12:18.614Z,4.38
2018-12-02T20:14:47.111Z,4.38
2018-12-02T20:17:15.669Z,4.42
2018-12-02T20:19:43.996Z,4.47
2018-12-02T20:22:13.592Z,4.47
2018-12-02T20:24:41.945Z,4.47
2018-12-02T20:27:10.291Z,4.49
2018-12-02T20:29:38.714Z,4.45
2018-12-02T20:32:07.093Z,4.36
2018-12-02T20:34:35.380Z,4.31
2018-12-02T20:37:03.767Z,4.33
2018-12-02T20:39:32.406Z,4.37
2018-12-02T20:42:00.737Z,4.39
2018-12-02T20:44:29.085Z,4.39
2018-12-02T20:46:57.932Z,4.38
2018-12-02T20:49:26.502Z,4.35
2018-12-02T20:51:54.613Z,4.33
2018-12-02T20:54:22.947Z,4.32
2018-12-02T20:56:51.285Z,4.29
2018-12-02T20:59:19.728Z,4.28
2018-12-02T21:01:48.104Z,4.24
2018-12-02T21:04:16.507Z,4.21
2018-12-02T21:06:45.044Z,4.26
2018-12-02T21:09:13.693Z,4.31
2018-12-02T21:11:42.054Z,4.32
2018-12-02T21:14:10.517Z,4.28
2018-12-02T21:16:38.863Z,4.28
2018-12-02T21:19:07.609Z,4.29
2018-12-02T21:21:37.281Z,4.24
2018-12-02T21:24:04.704Z,4.27
2018-12-02T21:26:33.102Z,4.28
2018-12-02T21:29:01.779Z,4.32
2018-12-02T21:31:30.412Z,4.32
2018-12-02T21:33:58.657Z,4.33
2018-12-02T21:36:26.988Z,4.34
2018-12-02T21:38:55.473Z,4.33
2018-12-02T21:41:24.715Z,4.33
2018-12-02T21:43:53.083Z,4.36
2018-12-02T21:46:21.422Z,4.37
2018-12-02T21:48:49.840Z,4.38
2018-12-02T21:51:18.192Z,4.36
2018-12-02T21:53:46.561Z,4.35
2018-12-02T21:56:14.921Z,4.32
2018-12-02T21:58:44.175Z,4.32
2018-12-02T22:01:12.507Z,4.32
2018-12-02T22:03:40.989Z,4.32
2018-12-02T22:06:09.348Z,4.33
2018-12-02T22:08:38.073Z,4.33
2018-12-02T22:11:06.183Z,4.33
2018-12-02T22:13:35.156Z,4.37
2018-12-02T22:16:03.700Z,4.38
2018-12-02T22:18:32.016Z,4.37
2018-12-02T22:21:00.583Z,4.37
2018-12-02T22:23:28.952Z,4.39
2018-12-02T22:25:57.606Z,4.42
2018-12-02T22:28:27.048Z,4.41
2018-12-02T22:30:56.729Z,4.40
2018-12-02T22:33:25.407Z,4.44
2018-12-02T22:35:53.726Z,4.46
2018-12-02T22:38:22.103Z,4.43
2018-12-02T22:40:50.571Z,4.40
2018-12-02T22:43:19.026Z,4.38
2018-12-02T22:45:47.546Z,4.40
2018-12-02T22:48:15.950Z,4.41
2018-12-02T22:50:44.433Z,4.39
2018-12-02T22:53:12.893Z,4.36
2018-12-02T22:55:41.267Z,4.40
2018-12-02T22:58:09.605Z,4.42
2018-12-02T23:00:38.109Z,4.45
2018-12-02T23:03:06.467Z,4.47
2018-12-02T23:05:34.799Z,4.48
2018-12-02T23:08:03.145Z,4.47
2018-12-02T23:10:31.475Z,4.48
2018-12-02T23:12:59.806Z,4.47
2018-12-02T23:15:28.140Z,4.43
2018-12-02T23:17:56.538Z,4.44
2018-12-02T23:20:24.996Z,4.47
2018-12-02T23:22:53.311Z,4.48
2018-12-02T23:25:21.719Z,4.51
2018-12-02T23:27:50.056Z,4.50
2018-12-02T23:30:18.392Z,4.52
2018-12-02T23:32:46.712Z,4.53
2018-12-02T23:35:15.113Z,4.55
2018-12-02T23:37:43.441Z,4.52
2018-12-02T23:40:11.738Z,4.51
2018-12-02T23:42:40.091Z,4.52
2018-12-02T23:45:08.509Z,4.52
2018-12-02T23:47:36.872Z,4.52
2018-12-02T23:50:05.265Z,4.53
2018-12-02T23:52:33.604Z,4.56
2018-12-02T23:55:01.925Z,4.58
2018-12-02T23:57:30.272Z,4.57
2018-12-02T23:59:58.618Z,4.59
